createdAt,value
2019-05-09T00:00:53.585Z,99.84
2019-05-09T00:01:54.261Z,99.99
2019-05-09T00:02:54.109Z,99.99
2019-05-09T00:03:54.338Z,99.99
2019-05-09T00:04:53.527Z,99.99
2019-05-09T00:05:54.197Z,99.99
2019-05-09T00:06:54.460Z,99.84
2019-05-09T00:07:53.488Z,99.99
2019-05-09T00:08:53.488Z,99.55
2019-05-09T00:09:53.527Z,99.65
2019-05-09T00:10:53.628Z,99.46
2019-05-09T00:11:53.439Z,99.55
2019-05-09T00:12:54.022Z,99.27
2019-05-09T00:13:53.981Z,99.46
2019-05-09T00:14:53.996Z,98.88
2019-05-09T00:15:54.130Z,99.46
2019-05-09T00:16:53.376Z,99.27
2019-05-09T00:17:53.410Z,99.99
2019-05-09T00:18:54.059Z,99.99
2019-05-09T00:19:53.944Z,99.99
2019-05-09T00:20:53.972Z,99.99
2019-05-09T00:21:54.067Z,99.99
2019-05-09T00:22:53.950Z,99.99
2019-05-09T00:23:54.101Z,99.99
2019-05-09T00:24:53.911Z,99.99
2019-05-09T00:25:53.885Z,99.99
2019-05-09T00:26:53.392Z,99.99
2019-05-09T00:27:53.724Z,99.99
2019-05-09T00:28:53.420Z,99.99
2019-05-09T00:29:53.339Z,99.99
2019-05-09T00:30:54.119Z,99.99
2019-05-09T00:31:54.061Z,99.99
2019-05-09T00:32:53.462Z,99.99
2019-05-09T00:33:53.386Z,99.99
2019-05-09T00:34:53.334Z,99.99
2019-05-09T00:35:53.467Z,99.99
2019-05-09T00:36:54.007Z,99.99
2019-05-09T00:37:53.676Z,99.99
2019-05-09T00:38:53.715Z,99.99
2019-05-09T00:39:53.369Z,99.99
2019-05-09T00:40:58.447Z,99.99
2019-05-09T00:41:53.887Z,99.99
2019-05-09T00:42:53.401Z,99.99
2019-05-09T00:43:54.300Z,99.99
2019-05-09T00:44:53.329Z,99.99
2019-05-09T00:45:54.181Z,99.99
2019-05-09T00:46:53.610Z,99.99
2019-05-09T00:47:53.929Z,99.99
2019-05-09T00:48:53.381Z,99.99
2019-05-09T00:49:54.159Z,99.99
2019-05-09T00:50:54.450Z,99.99
2019-05-09T00:51:54.061Z,99.99
2019-05-09T00:52:53.724Z,99.99
2019-05-09T00:53:53.706Z,99.99
2019-05-09T00:54:53.193Z,99.99
2019-05-09T00:55:53.068Z,99.99
2019-05-09T00:56:53.941Z,99.99
2019-05-09T00:57:53.495Z,99.99
2019-05-09T00:58:53.559Z,99.99
2019-05-09T00:59:53.203Z,99.99
2019-05-09T01:00:53.377Z,99.99
2019-05-09T01:01:54.241Z,99.99
2019-05-09T01:02:54.209Z,99.99
2019-05-09T01:03:53.600Z,99.99
2019-05-09T01:04:53.197Z,99.99
2019-05-09T01:05:54.250Z,99.99
2019-05-09T01:06:53.982Z,99.99
2019-05-09T01:07:53.808Z,99.99
2019-05-09T01:08:53.746Z,99.99
2019-05-09T01:09:54.322Z,99.99
2019-05-09T01:10:54.275Z,99.99
2019-05-09T01:11:53.378Z,99.99
2019-05-09T01:12:54.286Z,99.99
2019-05-09T01:13:54.358Z,99.99
2019-05-09T01:14:53.865Z,99.99
2019-05-09T01:15:53.284Z,99.99
2019-05-09T01:16:53.487Z,99.99
2019-05-09T01:17:53.582Z,99.99
2019-05-09T01:18:54.449Z,99.99
2019-05-09T01:19:53.880Z,99.99
2019-05-09T01:20:53.132Z,99.99
2019-05-09T01:21:54.177Z,99.99
2019-05-09T01:22:54.062Z,99.99
2019-05-09T01:23:54.019Z,99.99
2019-05-09T01:24:53.406Z,99.99
2019-05-09T01:25:53.015Z,99.99
2019-05-09T01:26:54.215Z,99.99
2019-05-09T01:27:53.881Z,99.99
2019-05-09T01:28:53.868Z,99.99
2019-05-09T01:29:53.520Z,99.99
2019-05-09T01:30:53.228Z,99.99
2019-05-09T01:31:54.067Z,99.99
2019-05-09T01:32:53.930Z,99.99
2019-05-09T01:33:53.437Z,99.99
2019-05-09T01:34:53.062Z,99.99
2019-05-09T01:35:54.049Z,99.99
2019-05-09T01:36:54.057Z,99.99
2019-05-09T01:37:53.922Z,99.99
2019-05-09T01:38:53.968Z,99.99
2019-05-09T01:39:53.422Z,99.99
2019-05-09T01:40:53.329Z,99.99
2019-05-09T01:41:53.190Z,99.99
2019-05-09T01:42:53.792Z,99.99
2019-05-09T01:43:53.668Z,99.99
2019-05-09T01:44:53.302Z,99.99
2019-05-09T01:45:54.029Z,99.99
2019-05-09T01:46:54.073Z,99.99
2019-05-09T01:47:53.789Z,99.99
2019-05-09T01:48:53.934Z,99.99
2019-05-09T01:49:53.846Z,99.99
2019-05-09T01:50:53.767Z,99.99
2019-05-09T01:51:53.733Z,99.99
2019-05-09T01:52:53.338Z,99.99
2019-05-09T01:53:53.157Z,99.99
2019-05-09T01:54:54.078Z,99.99
2019-05-09T01:55:53.949Z,99.99
2019-05-09T01:56:53.728Z,99.99
2019-05-09T01:57:53.868Z,99.99
2019-05-09T01:58:53.873Z,99.99
2019-05-09T01:59:53.236Z,99.99
2019-05-09T02:00:54.007Z,99.99
2019-05-09T02:01:54.144Z,99.99
2019-05-09T02:02:54.082Z,99.99
2019-05-09T02:03:53.767Z,99.99
2019-05-09T02:04:53.301Z,99.99
2019-05-09T02:05:53.150Z,99.99
2019-05-09T02:06:53.757Z,99.99
2019-05-09T02:07:54.075Z,99.99
2019-05-09T02:08:54.239Z,99.99
2019-05-09T02:09:53.932Z,99.99
2019-05-09T02:10:54.086Z,99.99
2019-05-09T02:11:54.332Z,99.99
2019-05-09T02:12:53.791Z,99.99
2019-05-09T02:13:53.529Z,99.99
2019-05-09T02:14:54.142Z,99.99
2019-05-09T02:15:53.703Z,99.99
2019-05-09T02:16:53.737Z,99.99
2019-05-09T02:18:00.689Z,99.99
2019-05-09T02:18:53.463Z,99.99
2019-05-09T02:19:53.263Z,99.99
2019-05-09T02:20:53.261Z,99.99
2019-05-09T02:21:53.080Z,99.99
2019-05-09T02:22:53.864Z,99.99
2019-05-09T02:23:53.684Z,99.99
2019-05-09T02:24:53.425Z,99.99
2019-05-09T02:25:53.239Z,99.99
2019-05-09T02:26:53.346Z,99.99
2019-05-09T02:27:51.724Z,99.79
2019-05-09T02:28:53.817Z,99.60
2019-05-09T02:29:51.702Z,99.41
2019-05-09T02:30:54.825Z,99.98
2019-05-09T02:31:54.454Z,99.60
2019-05-09T02:32:54.461Z,99.41
2019-05-09T02:33:54.156Z,99.79
2019-05-09T02:34:54.549Z,99.22
2019-05-09T02:35:56.973Z,98.83
2019-05-09T02:36:51.614Z,99.31
2019-05-09T02:37:51.600Z,99.02
2019-05-09T02:38:51.588Z,98.93
2019-05-09T02:39:51.593Z,98.74
2019-05-09T02:40:51.563Z,99.50
2019-05-09T02:42:04.790Z,99.41
2019-05-09T02:42:51.537Z,99.98
2019-05-09T02:43:51.525Z,99.88
2019-05-09T02:44:51.514Z,99.41
2019-05-09T02:45:52.829Z,99.41
2019-05-09T02:46:51.493Z,99.60
2019-05-09T02:47:51.480Z,98.83
2019-05-09T02:48:51.463Z,99.08
2019-05-09T02:49:51.451Z,98.93
2019-05-09T02:50:51.440Z,98.79
2019-05-09T02:51:51.427Z,99.08
2019-05-09T02:52:51.417Z,99.02
2019-05-09T02:53:51.401Z,99.27
2019-05-09T02:54:51.389Z,98.79
2019-05-09T02:55:51.378Z,99.08
2019-05-09T02:56:51.365Z,98.88
2019-05-09T02:57:51.355Z,99.36
2019-05-09T02:58:51.340Z,99.17
2019-05-09T02:59:51.333Z,99.08
2019-05-09T03:00:51.320Z,99.27
2019-05-09T03:01:51.306Z,98.88
2019-05-09T03:02:51.305Z,99.27
2019-05-09T03:03:51.280Z,98.79
2019-05-09T03:04:51.268Z,98.13
2019-05-09T03:05:51.264Z,98.22
2019-05-09T03:06:51.244Z,98.32
2019-05-09T03:07:51.248Z,99.27
2019-05-09T03:08:51.219Z,99.93
2019-05-09T03:09:51.209Z,99.99
2019-05-09T03:10:51.195Z,99.99
2019-05-09T03:11:51.196Z,99.99
2019-05-09T03:12:51.175Z,99.74
2019-05-09T03:13:51.160Z,99.84
2019-05-09T03:14:51.149Z,98.88
2019-05-09T03:15:51.138Z,99.12
2019-05-09T03:16:51.124Z,99.46
2019-05-09T03:17:51.111Z,99.46
2019-05-09T03:18:51.100Z,99.27
2019-05-09T03:19:51.088Z,99.55
2019-05-09T03:20:51.081Z,99.55
2019-05-09T03:21:51.076Z,99.46
2019-05-09T03:22:51.057Z,99.46
2019-05-09T03:23:51.043Z,99.74
2019-05-09T03:24:51.030Z,99.27
2019-05-09T03:25:51.065Z,98.98
2019-05-09T03:26:51.011Z,97.93
2019-05-09T03:27:50.993Z,97.55
2019-05-09T03:28:50.981Z,98.88
2019-05-09T03:29:50.969Z,98.13
2019-05-09T03:30:50.957Z,98.88
2019-05-09T03:31:50.944Z,99.08
2019-05-09T03:32:50.934Z,99.08
2019-05-09T03:33:50.925Z,99.99
2019-05-09T03:34:50.911Z,99.98
2019-05-09T03:35:50.896Z,99.99
2019-05-09T03:36:50.884Z,99.99
2019-05-09T03:37:50.871Z,99.99
2019-05-09T03:38:50.859Z,99.99
2019-05-09T03:39:50.850Z,99.99
2019-05-09T03:40:50.834Z,99.99
2019-05-09T03:41:50.828Z,99.99
2019-05-09T03:42:50.810Z,99.99
2019-05-09T03:43:50.797Z,99.99
2019-05-09T03:44:50.786Z,99.99
2019-05-09T03:45:50.780Z,99.99
2019-05-09T03:46:50.768Z,99.99
2019-05-09T03:47:50.749Z,99.99
2019-05-09T03:48:50.738Z,99.99
2019-05-09T03:49:50.725Z,99.99
2019-05-09T03:50:50.714Z,99.99
2019-05-09T03:51:50.699Z,99.99
2019-05-09T03:52:50.688Z,99.99
2019-05-09T03:53:50.676Z,99.99
2019-05-09T03:54:50.664Z,99.99
2019-05-09T03:55:50.651Z,99.99
2019-05-09T03:56:50.638Z,99.99
2019-05-09T03:57:50.626Z,99.99
2019-05-09T03:58:50.614Z,99.99
2019-05-09T03:59:50.600Z,99.99
2019-05-09T04:00:50.589Z,99.99
2019-05-09T04:01:50.596Z,99.99
2019-05-09T04:02:50.567Z,99.99
2019-05-09T04:03:50.551Z,99.99
2019-05-09T04:04:50.540Z,99.99
2019-05-09T04:05:59.114Z,99.99
2019-05-09T04:06:50.524Z,99.99
2019-05-09T04:07:50.503Z,99.99
2019-05-09T04:08:53.552Z,99.99
2019-05-09T04:09:50.476Z,99.99
2019-05-09T04:10:50.600Z,99.99
2019-05-09T04:11:50.452Z,99.99
2019-05-09T04:12:55.668Z,99.99
2019-05-09T04:13:50.427Z,99.99
2019-05-09T04:14:50.415Z,99.99
2019-05-09T04:15:50.402Z,99.99
2019-05-09T04:16:50.389Z,99.99
2019-05-09T04:17:50.378Z,99.99
2019-05-09T04:18:50.365Z,99.99
2019-05-09T04:19:50.352Z,99.99
2019-05-09T04:20:50.342Z,99.99
2019-05-09T04:21:50.328Z,99.99
2019-05-09T04:22:50.315Z,99.99
2019-05-09T04:23:50.302Z,99.99
2019-05-09T04:24:50.291Z,99.99
2019-05-09T04:25:50.281Z,99.99
2019-05-09T04:26:50.266Z,99.99
2019-05-09T04:27:50.252Z,99.99
2019-05-09T04:28:50.240Z,99.99
2019-05-09T04:29:50.227Z,99.99
2019-05-09T04:30:50.215Z,99.99
2019-05-09T04:31:50.202Z,99.99
2019-05-09T04:32:50.193Z,99.99
2019-05-09T04:33:50.183Z,99.99
2019-05-09T04:34:50.166Z,99.99
2019-05-09T04:35:50.154Z,99.99
2019-05-09T04:36:50.140Z,99.99
2019-05-09T04:37:50.128Z,99.99
2019-05-09T04:38:50.116Z,99.99
2019-05-09T04:39:53.966Z,99.99
2019-05-09T04:40:50.126Z,99.99
2019-05-09T04:41:50.083Z,99.99
2019-05-09T04:42:50.072Z,99.99
2019-05-09T04:43:50.056Z,99.99
2019-05-09T04:44:57.466Z,99.99
2019-05-09T04:45:53.234Z,99.99
2019-05-09T04:46:53.995Z,99.99
2019-05-09T04:47:50.006Z,99.99
2019-05-09T04:48:54.093Z,99.99
2019-05-09T04:49:49.982Z,99.99
2019-05-09T04:50:49.970Z,99.99
2019-05-09T04:51:49.955Z,99.99
2019-05-09T04:52:49.944Z,99.99
2019-05-09T04:53:49.932Z,99.99
2019-05-09T04:54:49.920Z,99.99
2019-05-09T04:55:49.907Z,99.99
2019-05-09T04:56:49.893Z,99.99
2019-05-09T04:57:49.882Z,99.99
2019-05-09T04:58:49.869Z,99.99
2019-05-09T04:59:49.856Z,99.99
2019-05-09T05:00:49.856Z,99.99
2019-05-09T05:01:49.832Z,99.99
2019-05-09T05:02:49.820Z,99.99
2019-05-09T05:03:49.808Z,99.99
2019-05-09T05:04:49.796Z,99.99
2019-05-09T05:05:49.785Z,99.99
2019-05-09T05:06:49.772Z,99.99
2019-05-09T05:07:49.759Z,99.99
2019-05-09T05:08:49.750Z,99.99
2019-05-09T05:09:49.736Z,99.99
2019-05-09T05:10:49.724Z,99.99
2019-05-09T05:11:49.711Z,99.99
2019-05-09T05:12:49.700Z,99.99
2019-05-09T05:13:49.689Z,99.99
2019-05-09T05:14:49.678Z,99.99
2019-05-09T05:15:49.664Z,99.99
2019-05-09T05:16:53.341Z,99.99
2019-05-09T05:17:49.641Z,99.99
2019-05-09T05:18:49.629Z,99.99
2019-05-09T05:19:49.617Z,99.99
2019-05-09T05:20:49.606Z,99.99
2019-05-09T05:21:49.595Z,99.99
2019-05-09T05:22:49.584Z,99.99
2019-05-09T05:23:49.571Z,99.99
2019-05-09T05:24:49.561Z,99.99
2019-05-09T05:25:49.548Z,99.99
2019-05-09T05:26:49.537Z,99.99
2019-05-09T05:27:49.524Z,99.99
2019-05-09T05:28:49.513Z,99.99
2019-05-09T05:29:49.502Z,99.89
2019-05-09T05:30:49.495Z,99.32
2019-05-09T05:31:49.479Z,98.65
2019-05-09T05:32:49.471Z,98.36
2019-05-09T05:33:53.601Z,97.56
2019-05-09T05:34:49.445Z,97.84
2019-05-09T05:35:49.437Z,98.22
2019-05-09T05:36:49.422Z,97.46
2019-05-09T05:37:49.411Z,97.27
2019-05-09T05:38:49.400Z,96.80
2019-05-09T05:39:49.387Z,96.98
2019-05-09T05:40:49.883Z,96.80
2019-05-09T05:41:49.365Z,96.80
2019-05-09T05:42:49.355Z,97.75
2019-05-09T05:43:49.342Z,97.84
2019-05-09T05:44:49.332Z,97.27
2019-05-09T05:45:49.323Z,96.60
2019-05-09T05:46:50.812Z,95.94
2019-05-09T05:47:49.298Z,97.84
2019-05-09T05:48:49.290Z,96.41
2019-05-09T05:49:49.274Z,97.17
2019-05-09T05:50:49.265Z,96.80
2019-05-09T05:51:49.251Z,95.94
2019-05-09T05:52:49.244Z,96.60
2019-05-09T05:53:49.232Z,96.03
2019-05-09T05:54:49.218Z,95.08
2019-05-09T05:55:52.532Z,95.36
2019-05-09T05:56:49.195Z,94.89
2019-05-09T05:57:49.184Z,94.79
2019-05-09T05:58:49.179Z,95.27
2019-05-09T05:59:49.160Z,95.03
2019-05-09T06:00:49.150Z,94.74
2019-05-09T06:01:49.141Z,95.12
2019-05-09T06:02:49.133Z,94.93
2019-05-09T06:03:49.116Z,94.56
2019-05-09T06:04:49.105Z,93.60
2019-05-09T06:05:51.631Z,94.27
2019-05-09T06:06:49.140Z,94.46
2019-05-09T06:07:49.072Z,93.51
2019-05-09T06:08:49.061Z,93.41
2019-05-09T06:09:49.057Z,92.36
2019-05-09T06:10:49.042Z,92.93
2019-05-09T06:11:49.028Z,92.55
2019-05-09T06:12:49.017Z,92.55
2019-05-09T06:13:56.513Z,91.79
2019-05-09T06:14:48.997Z,91.60
2019-05-09T06:15:48.985Z,92.60
2019-05-09T06:16:48.975Z,92.03
2019-05-09T06:17:48.963Z,92.50
2019-05-09T06:18:48.956Z,91.93
2019-05-09T06:19:48.941Z,91.74
2019-05-09T06:20:48.933Z,90.41
2019-05-09T06:21:52.226Z,91.27
2019-05-09T06:22:48.911Z,90.98
2019-05-09T06:23:48.897Z,91.27
2019-05-09T06:24:48.888Z,90.22
2019-05-09T06:25:48.877Z,89.17
2019-05-09T06:26:48.866Z,90.03
2019-05-09T06:27:48.857Z,89.31
2019-05-09T06:28:48.844Z,90.07
2019-05-09T06:29:48.834Z,89.50
2019-05-09T06:30:48.827Z,87.97
2019-05-09T06:31:48.812Z,88.35
2019-05-09T06:32:48.802Z,88.35
2019-05-09T06:33:53.353Z,87.97
2019-05-09T06:34:48.781Z,87.87
2019-05-09T06:35:48.770Z,87.40
2019-05-09T06:36:49.142Z,86.92
2019-05-09T06:37:48.800Z,87.21
2019-05-09T06:38:48.977Z,87.06
2019-05-09T06:39:48.806Z,86.39
2019-05-09T06:40:48.718Z,85.82
2019-05-09T06:41:48.729Z,86.01
2019-05-09T06:42:49.029Z,86.49
2019-05-09T06:43:49.672Z,87.25
2019-05-09T06:44:48.678Z,87.15
2019-05-09T06:45:48.791Z,86.01
2019-05-09T06:46:48.657Z,85.53
2019-05-09T06:47:48.826Z,86.10
2019-05-09T06:48:48.639Z,84.86
2019-05-09T06:49:50.141Z,82.67
2019-05-09T06:50:48.618Z,82.38
2019-05-09T06:51:48.609Z,82.23
2019-05-09T06:52:48.598Z,81.95
2019-05-09T06:53:48.887Z,81.76
2019-05-09T06:54:48.781Z,80.57
2019-05-09T06:55:48.568Z,81.95
2019-05-09T06:56:48.560Z,80.80
2019-05-09T06:57:49.045Z,81.18
2019-05-09T06:58:48.541Z,81.27
2019-05-09T06:59:48.897Z,81.47
2019-05-09T07:00:48.988Z,80.61
2019-05-09T07:01:48.516Z,80.99
2019-05-09T07:02:48.503Z,80.90
2019-05-09T07:03:48.494Z,81.47
2019-05-09T07:04:48.484Z,81.95
2019-05-09T07:05:48.480Z,81.22
2019-05-09T07:06:48.468Z,80.36
2019-05-09T07:07:48.459Z,80.36
2019-05-09T07:08:48.460Z,80.36
2019-05-09T07:09:48.443Z,78.93
2019-05-09T07:10:48.446Z,78.93
2019-05-09T07:11:48.794Z,78.01
2019-05-09T07:12:48.725Z,78.78
2019-05-09T07:13:48.417Z,77.25
2019-05-09T07:14:48.877Z,77.34
2019-05-09T07:15:48.403Z,76.96
2019-05-09T07:16:48.398Z,77.34
2019-05-09T07:17:48.394Z,77.72
2019-05-09T07:18:48.625Z,76.20
2019-05-09T07:19:49.083Z,75.68
2019-05-09T07:20:48.431Z,76.67
2019-05-09T07:21:48.580Z,76.96
2019-05-09T07:22:48.372Z,76.77
2019-05-09T07:23:48.366Z,76.57
2019-05-09T07:24:48.363Z,75.71
2019-05-09T07:25:48.360Z,75.62
2019-05-09T07:26:48.356Z,76.04
2019-05-09T07:27:48.555Z,75.47
2019-05-09T07:28:48.716Z,74.61
2019-05-09T07:29:48.348Z,73.17
2019-05-09T07:30:48.344Z,74.04
2019-05-09T07:31:48.345Z,75.37
2019-05-09T07:32:48.764Z,74.99
2019-05-09T07:33:48.335Z,73.97
2019-05-09T07:34:48.347Z,73.15
2019-05-09T07:35:48.331Z,72.58
2019-05-09T07:36:48.336Z,73.24
2019-05-09T07:37:48.894Z,71.17
2019-05-09T07:38:48.324Z,70.28
2019-05-09T07:39:48.518Z,71.08
2019-05-09T07:40:48.320Z,70.89
2019-05-09T07:41:48.318Z,70.79
2019-05-09T07:42:48.317Z,69.77
2019-05-09T07:43:48.327Z,68.43
2019-05-09T07:44:52.171Z,68.24
2019-05-09T07:45:48.313Z,69.29
2019-05-09T07:46:48.313Z,69.45
2019-05-09T07:47:48.309Z,70.03
2019-05-09T07:48:48.469Z,69.77
2019-05-09T07:49:48.326Z,69.93
2019-05-09T07:50:48.304Z,69.45
2019-05-09T07:51:48.308Z,68.59
2019-05-09T07:52:48.299Z,69.45
2019-05-09T07:53:48.354Z,70.85
2019-05-09T07:54:48.451Z,71.23
2019-05-09T07:55:48.290Z,71.42
2019-05-09T07:56:48.638Z,71.33
2019-05-09T07:57:55.188Z,70.28
2019-05-09T07:58:48.280Z,70.53
2019-05-09T07:59:48.277Z,71.58
2019-05-09T08:00:48.380Z,72.34
2019-05-09T08:01:48.862Z,71.11
2019-05-09T08:02:48.264Z,71.30
2019-05-09T08:03:48.990Z,71.30
2019-05-09T08:04:49.065Z,71.39
2019-05-09T08:05:48.249Z,70.72
2019-05-09T08:06:48.762Z,70.91
2019-05-09T08:07:48.596Z,71.33
2019-05-09T08:08:48.234Z,70.85
2019-05-09T08:09:48.230Z,70.66
2019-05-09T08:10:48.225Z,69.51
2019-05-09T08:11:48.450Z,69.19
2019-05-09T08:12:48.220Z,69.29
2019-05-09T08:13:48.739Z,69.67
2019-05-09T08:15:06.713Z,69.00
2019-05-09T08:15:48.199Z,69.42
2019-05-09T08:16:48.195Z,69.32
2019-05-09T08:17:48.900Z,69.42
2019-05-09T08:18:48.459Z,68.94
2019-05-09T08:19:48.552Z,68.36
2019-05-09T08:20:48.177Z,68.36
2019-05-09T08:21:48.172Z,67.69
2019-05-09T08:22:57.443Z,67.79
2019-05-09T08:23:48.658Z,69.48
2019-05-09T08:24:48.425Z,70.62
2019-05-09T08:25:48.575Z,70.24
2019-05-09T08:26:48.151Z,69.67
2019-05-09T08:27:48.395Z,70.53
2019-05-09T08:28:48.238Z,70.34
2019-05-09T08:29:48.136Z,71.30
2019-05-09T08:30:48.521Z,70.34
2019-05-09T08:31:48.555Z,70.11
2019-05-09T08:32:48.427Z,71.16
2019-05-09T08:33:48.616Z,71.73
2019-05-09T08:34:48.345Z,72.22
2019-05-09T08:35:52.339Z,73.08
2019-05-09T08:36:48.090Z,73.27
2019-05-09T08:37:48.083Z,73.84
2019-05-09T08:38:48.077Z,73.75
2019-05-09T08:39:48.589Z,73.27
2019-05-09T08:40:48.631Z,73.27
2019-05-09T08:41:48.601Z,73.17
2019-05-09T08:42:48.168Z,74.04
2019-05-09T08:43:48.488Z,74.76
2019-05-09T08:44:48.310Z,72.94
2019-05-09T08:45:48.455Z,73.52
2019-05-09T08:46:48.236Z,74.48
2019-05-09T08:47:48.553Z,74.48
2019-05-09T08:48:48.592Z,75.24
2019-05-09T08:49:49.630Z,74.95
2019-05-09T08:50:48.339Z,75.52
2019-05-09T08:52:07.041Z,75.52
2019-05-09T08:52:48.250Z,75.62
2019-05-09T08:53:48.301Z,74.76
2019-05-09T08:54:48.664Z,74.19
2019-05-09T08:55:47.951Z,74.57
2019-05-09T08:56:47.944Z,74.48
2019-05-09T08:57:48.283Z,74.76
2019-05-09T08:58:48.635Z,74.48
2019-05-09T08:59:50.476Z,74.38
2019-05-09T09:00:49.086Z,74.19
2019-05-09T09:02:10.736Z,73.23
2019-05-09T09:02:48.299Z,73.52
2019-05-09T09:03:48.508Z,73.61
2019-05-09T09:04:48.825Z,73.52
2019-05-09T09:05:48.618Z,72.75
2019-05-09T09:06:48.359Z,73.14
2019-05-09T09:07:49.071Z,72.66
2019-05-09T09:08:48.426Z,73.33
2019-05-09T09:09:48.344Z,73.23
2019-05-09T09:10:48.862Z,73.33
2019-05-09T09:11:47.958Z,74.38
2019-05-09T09:12:47.997Z,74.09
2019-05-09T09:13:48.332Z,73.27
2019-05-09T09:14:48.010Z,72.50
2019-05-09T09:16:05.741Z,72.94
2019-05-09T09:16:48.015Z,73.52
2019-05-09T09:17:49.129Z,73.99
2019-05-09T09:18:48.228Z,74.38
2019-05-09T09:19:48.045Z,74.57
2019-05-09T09:20:48.499Z,75.91
2019-05-09T09:21:49.722Z,75.34
2019-05-09T09:22:48.148Z,75.24
2019-05-09T09:23:50.629Z,75.34
2019-05-09T09:24:48.322Z,76.48
2019-05-09T09:25:48.693Z,77.72
2019-05-09T09:26:48.149Z,76.10
2019-05-09T09:27:50.964Z,74.09
2019-05-09T09:28:48.450Z,74.38
2019-05-09T09:29:48.236Z,73.71
2019-05-09T09:30:48.602Z,74.09
2019-05-09T09:31:48.348Z,74.28
2019-05-09T09:32:48.057Z,74.76
2019-05-09T09:33:48.117Z,75.05
2019-05-09T09:34:48.472Z,76.10
2019-05-09T09:35:48.879Z,75.43
2019-05-09T09:36:48.116Z,75.05
2019-05-09T09:37:51.923Z,75.24
2019-05-09T09:38:48.217Z,75.24
2019-05-09T09:39:48.857Z,75.43
2019-05-09T09:40:47.911Z,75.66
2019-05-09T09:41:48.309Z,75.18
2019-05-09T09:42:48.981Z,74.22
2019-05-09T09:43:47.842Z,73.23
2019-05-09T09:44:48.132Z,73.94
2019-05-09T09:45:48.279Z,73.84
2019-05-09T09:46:47.854Z,73.33
2019-05-09T09:47:48.365Z,74.38
2019-05-09T09:48:48.179Z,74.85
2019-05-09T09:49:49.027Z,75.24
2019-05-09T09:50:51.354Z,75.43
2019-05-09T09:51:48.483Z,75.43
2019-05-09T09:52:49.143Z,75.62
2019-05-09T09:53:48.989Z,76.25
2019-05-09T09:54:48.205Z,76.77
2019-05-09T09:55:47.824Z,77.63
2019-05-09T09:56:47.908Z,77.30
2019-05-09T09:57:48.451Z,77.01
2019-05-09T09:58:48.351Z,77.11
2019-05-09T09:59:48.437Z,76.73
2019-05-09T10:00:48.492Z,77.97
2019-05-09T10:01:47.861Z,77.21
2019-05-09T10:02:48.223Z,78.36
2019-05-09T10:03:47.471Z,78.45
2019-05-09T10:04:47.410Z,78.36
2019-05-09T10:05:48.605Z,77.69
2019-05-09T10:06:48.253Z,78.16
2019-05-09T10:07:47.738Z,76.92
2019-05-09T10:08:49.043Z,77.25
2019-05-09T10:09:48.002Z,77.78
2019-05-09T10:10:48.385Z,78.49
2019-05-09T10:11:48.289Z,78.01
2019-05-09T10:12:49.406Z,77.92
2019-05-09T10:13:48.017Z,77.00
2019-05-09T10:14:47.338Z,77.09
2019-05-09T10:15:47.537Z,79.10
2019-05-09T10:16:47.864Z,77.28
2019-05-09T10:17:47.760Z,75.51
2019-05-09T10:18:47.299Z,74.61
2019-05-09T10:19:48.153Z,74.61
2019-05-09T10:20:48.509Z,74.99
2019-05-09T10:21:48.632Z,75.95
2019-05-09T10:22:59.016Z,74.70
2019-05-09T10:23:48.336Z,74.61
2019-05-09T10:24:47.903Z,75.66
2019-05-09T10:25:47.252Z,75.85
2019-05-09T10:26:47.242Z,75.47
2019-05-09T10:27:47.979Z,75.79
2019-05-09T10:28:48.548Z,75.12
2019-05-09T10:29:47.973Z,74.36
2019-05-09T10:30:48.472Z,74.84
2019-05-09T10:31:48.776Z,73.50
2019-05-09T10:32:47.695Z,73.63
2019-05-09T10:33:48.208Z,73.24
2019-05-09T10:34:48.761Z,74.40
2019-05-09T10:35:47.910Z,72.96
2019-05-09T10:36:47.656Z,71.56
2019-05-09T10:37:48.489Z,71.37
2019-05-09T10:38:47.795Z,70.09
2019-05-09T10:39:49.081Z,70.95
2019-05-09T10:40:48.464Z,71.27
2019-05-09T10:41:48.256Z,72.42
2019-05-09T10:42:48.379Z,72.80
2019-05-09T10:43:48.587Z,73.22
2019-05-09T10:44:48.854Z,71.98
2019-05-09T10:45:48.420Z,70.54
2019-05-09T10:46:53.726Z,69.13
2019-05-09T10:47:48.274Z,70.64
2019-05-09T10:48:47.942Z,69.96
2019-05-09T10:49:48.796Z,69.20
2019-05-09T10:50:53.821Z,69.87
2019-05-09T10:51:48.530Z,71.17
2019-05-09T10:52:48.197Z,70.54
2019-05-09T10:53:48.200Z,70.50
2019-05-09T10:54:47.077Z,71.84
2019-05-09T10:55:48.085Z,70.70
2019-05-09T10:56:48.746Z,70.89
2019-05-09T10:57:52.347Z,72.61
2019-05-09T10:58:48.181Z,72.52
2019-05-09T10:59:48.324Z,72.29
2019-05-09T11:00:48.309Z,71.91
2019-05-09T11:01:49.399Z,72.48
2019-05-09T11:02:48.306Z,73.44
2019-05-09T11:03:48.205Z,73.24
2019-05-09T11:04:49.150Z,72.38
2019-05-09T11:05:47.012Z,73.79
2019-05-09T11:06:47.009Z,72.54
2019-05-09T11:07:49.344Z,73.21
2019-05-09T11:08:47.882Z,73.40
2019-05-09T11:09:48.078Z,73.08
2019-05-09T11:10:47.567Z,74.51
2019-05-09T11:11:48.433Z,74.84
2019-05-09T11:12:47.884Z,75.47
2019-05-09T11:13:48.141Z,74.51
2019-05-09T11:14:48.447Z,74.55
2019-05-09T11:15:48.004Z,74.84
2019-05-09T11:16:51.095Z,74.93
2019-05-09T11:17:47.528Z,76.37
2019-05-09T11:18:48.195Z,77.00
2019-05-09T11:19:48.218Z,77.86
2019-05-09T11:20:46.913Z,78.63
2019-05-09T11:21:47.879Z,79.10
2019-05-09T11:22:46.930Z,79.39
2019-05-09T11:23:48.771Z,79.39
2019-05-09T11:24:50.914Z,79.77
2019-05-09T11:25:47.309Z,79.87
2019-05-09T11:26:48.117Z,79.39
2019-05-09T11:27:48.725Z,79.10
2019-05-09T11:28:46.854Z,79.10
2019-05-09T11:29:49.759Z,79.68
2019-05-09T11:30:47.655Z,79.39
2019-05-09T11:31:47.779Z,78.81
2019-05-09T11:32:48.120Z,79.20
2019-05-09T11:33:48.408Z,78.81
2019-05-09T11:34:48.610Z,78.81
2019-05-09T11:35:48.006Z,78.19
2019-05-09T11:36:49.639Z,79.52
2019-05-09T11:37:48.059Z,78.86
2019-05-09T11:38:49.450Z,78.09
2019-05-09T11:39:48.162Z,78.57
2019-05-09T11:40:48.291Z,78.66
2019-05-09T11:41:48.800Z,77.33
2019-05-09T11:42:48.259Z,75.89
2019-05-09T11:43:48.576Z,77.04
2019-05-09T11:44:46.735Z,75.98
2019-05-09T11:45:47.896Z,76.27
2019-05-09T11:46:47.753Z,75.22
2019-05-09T11:47:46.802Z,74.55
2019-05-09T11:48:46.717Z,73.63
2019-05-09T11:49:48.078Z,74.20
2019-05-09T11:50:47.754Z,74.68
2019-05-09T11:51:48.274Z,73.86
2019-05-09T11:52:48.822Z,74.33
2019-05-09T11:53:48.633Z,72.80
2019-05-09T11:54:48.247Z,74.72
2019-05-09T11:55:48.298Z,73.51
2019-05-09T11:56:48.163Z,72.94
2019-05-09T11:57:48.487Z,74.08
2019-05-09T11:58:48.083Z,71.44
2019-05-09T11:59:48.023Z,70.57
2019-05-09T12:00:48.244Z,70.38
2019-05-09T12:01:48.245Z,71.44
2019-05-09T12:02:46.620Z,68.95
2019-05-09T12:03:49.940Z,69.71
2019-05-09T12:04:48.729Z,71.44
2019-05-09T12:05:47.647Z,69.62
2019-05-09T12:06:49.111Z,68.66
2019-05-09T12:07:46.596Z,69.42
2019-05-09T12:08:48.317Z,69.42
2019-05-09T12:09:48.915Z,69.52
2019-05-09T12:10:46.579Z,70.38
2019-05-09T12:11:48.265Z,71.47
2019-05-09T12:12:47.814Z,68.88
2019-05-09T12:13:48.541Z,68.12
2019-05-09T12:14:48.411Z,67.69
2019-05-09T12:15:48.921Z,67.99
2019-05-09T12:16:48.051Z,67.57
2019-05-09T12:17:56.394Z,67.79
2019-05-09T12:18:48.836Z,69.23
2019-05-09T12:19:48.752Z,70.00
2019-05-09T12:20:48.429Z,70.90
2019-05-09T12:21:48.100Z,68.21
2019-05-09T12:22:48.466Z,68.44
2019-05-09T12:23:48.765Z,69.05
2019-05-09T12:24:48.122Z,67.61
2019-05-09T12:25:46.515Z,68.47
2019-05-09T12:26:48.167Z,68.37
2019-05-09T12:27:48.707Z,68.08
2019-05-09T12:28:48.396Z,67.67
2019-05-09T12:29:48.375Z,67.09
2019-05-09T12:30:48.773Z,67.57
2019-05-09T12:31:48.502Z,68.24
2019-05-09T12:32:46.495Z,68.30
2019-05-09T12:33:48.246Z,68.21
2019-05-09T12:34:47.975Z,67.92
2019-05-09T12:35:47.764Z,67.54
2019-05-09T12:36:49.491Z,68.21
2019-05-09T12:37:48.393Z,68.50
2019-05-09T12:38:49.804Z,70.57
2019-05-09T12:39:47.995Z,69.81
2019-05-09T12:40:48.206Z,70.15
2019-05-09T12:41:48.390Z,71.21
2019-05-09T12:42:49.634Z,71.69
2019-05-09T12:43:46.446Z,73.13
2019-05-09T12:44:49.282Z,73.22
2019-05-09T12:45:47.809Z,73.70
2019-05-09T12:46:48.098Z,72.84
2019-05-09T12:47:46.431Z,72.61
2019-05-09T12:48:48.125Z,71.46
2019-05-09T12:49:48.637Z,70.98
2019-05-09T12:50:48.683Z,71.75
2019-05-09T12:51:46.402Z,71.46
2019-05-09T12:52:48.678Z,72.67